SNHN weather

Megafort Heliport
Contagem, Minas Gerais, Brazil

Public forecast

Using degrees Celsius for public forecast. Weather courtesy of forecast.io.

METAR (pilot weather report)

Closest report is Carlos Prates Airport, 3.7 nm (6.9 km) ESE. Retrieved 2019/07/22 20:00 UTC (6 minutes ago):

SBPR 222000Z 10009KT 9999 SCT035 20/11 Q1025

TAF (pilot weather forecast)

Forecast is more than 12 hours old.

Closest forecast is Pampulha - Carlos Drummond de Andrade Airport, 6.3 nm (11.6 km) ENE. Retrieved 2012/03/26 18:12 UTC (7 years ago):

TAF SBBH 261639Z 2618/2706 09005KT 9999 SCT030 TX28/2618Z TN20/2705Z PROB30 2619/2624 8000 TSRA BKN035 FEW045CB RMK PGG